Grundy, VA (24614)

11:08 PM EST on February 13, 2016 (GMT -0500)
Oakwood, VA | | Change Station
CLOSE
Current Station
Personal Weather Station
Location: Oakwood, VA
Elevation: 1404 ft
Nearby Weather Stations
Active Advisory: Winter Storm Watch

Elev 1404 ft 37.21 °N, 82.01 °W | Updated 1 minute ago

Clear
Clear
10.8 °F
Feels Like 11 °F
N
0.0
Wind Variable Wind from North

Today
High -- | Low -- °F
--% Chance of Precip.
Yesterday
High -- | Low -- °F
Precip. -- in
Pressure 30.31 in
Visibility 10.0 miles
Clouds Clear
Windchill 11 °F
Dew Point 7 °F
Humidity 84%
Rainfall 0.00 in
Snow Depth Not available.
7:20 AM 6:05 PM
Waxing Crescent, 37% visible
METAR KJFZ 140355Z AUTO 31003KT 10SM CLR M13/M19 A3031 RMK AO2 T11341189
Pressure 30.31 in
Visibility 10.0 miles
Clouds Clear
Windchill 11 °F
Dew Point 7 °F
Humidity 84%
Rainfall 0.00 in
Snow Depth Not available.
7:20 AM 6:05 PM
Waxing Crescent, 37% visible
METAR KJFZ 140355Z AUTO 31003KT 10SM CLR M13/M19 A3031 RMK AO2 T11341189

10-Day Weather Forecast

Almanac

Astronomy

Feb. 13, 2016 Rise Set
Actual Time
Civil Twilight
Nautical Twilight
Astronomical Twilight
Moon
Length of Visible Light
Length of Day
Tomorrow will be .
, % of the Moon is Illuminated

Today's Extremes

State Highs State Lows

Community

WunderPhotos

Upload Photos

1,892,743 photos uploaded!

WunderBlog® & News

Nearby

Air Quality

  Air Quality AQ Index Pollutant
Not available.

Snow Depth

Station Depth Elevation

Earthquake Activity

City Distance Mag. Time & Date
Minimum magnitude displayed is 2.5.

Coastal Water Temperatures

Place Temperature

Stations

Nearby Weather Stations

Station Location Temp. Windchill Dew Point Humidity Wind Precip. Elev Updated Type
                   

Watches & Warnings

Winter Storm Watch
Issued: 9:52 PM EST Feb. 13, 2016 – National Weather Service

... Winter Storm Watch now in effect from Sunday afternoon through
Monday afternoon...

* hazards... potential for four or more inches of snow and maybe
some sleet too.

* Timing... Sunday afternoon through Monday afternoon.

* Impacts... travel difficulties and power outages possible.

Precautionary/preparedness actions...

A Winter Storm Watch means there is a potential for significant
snow... sleet... or ice accumulations that may impact travel.
Continue to monitor the latest forecasts.